createdAt,value
2018-03-28T00:03:09.474Z,6.84
2018-03-28T00:09:14.079Z,6.84
2018-03-28T00:15:18.833Z,6.81
2018-03-28T00:21:23.619Z,6.82
2018-03-28T00:27:28.145Z,6.96
2018-03-28T00:33:32.624Z,6.99
2018-03-28T00:39:37.287Z,7.03
2018-03-28T00:45:42.543Z,6.93
2018-03-28T00:51:48.402Z,7.04
2018-03-28T00:57:53.019Z,7.06
2018-03-28T01:03:57.678Z,7.13
2018-03-28T01:10:02.200Z,6.91
2018-03-28T01:16:06.767Z,6.96
2018-03-28T01:22:11.410Z,6.94
2018-03-28T01:28:16.002Z,6.94
2018-03-28T01:34:20.598Z,7.02
2018-03-28T01:40:25.097Z,7.02
2018-03-28T01:46:29.775Z,7.07
2018-03-28T01:52:34.259Z,7.02
2018-03-28T01:58:38.736Z,7.03
2018-03-28T02:04:44.018Z,7.09
2018-03-28T02:10:50.276Z,7.08
2018-03-28T02:16:55.526Z,7.02
2018-03-28T02:23:00.018Z,6.93
2018-03-28T02:29:04.561Z,7.17
2018-03-28T02:35:09.403Z,7.09
2018-03-28T02:41:14.693Z,7.10
2018-03-28T02:47:19.424Z,7.12
2018-03-28T02:53:23.979Z,7.04
2018-03-28T02:59:28.636Z,7.02
2018-03-28T03:05:33.177Z,7.06
2018-03-28T03:11:37.708Z,7.05
2018-03-28T03:17:42.989Z,6.93
2018-03-28T03:23:47.849Z,6.91
2018-03-28T03:29:53.110Z,7.05
2018-03-28T03:35:57.563Z,6.88
2018-03-28T03:42:03.065Z,6.89
2018-03-28T03:48:07.652Z,6.98
2018-03-28T03:54:12.911Z,6.90
2018-03-28T04:00:17.425Z,6.99
2018-03-28T04:06:22.781Z,6.94
2018-03-28T04:12:27.317Z,6.97
2018-03-28T04:18:32.055Z,6.88
2018-03-28T04:24:36.558Z,6.85
2018-03-28T04:30:41.785Z,7.06
2018-03-28T04:36:46.722Z,6.92
2018-03-28T04:42:51.950Z,6.81
2018-03-28T04:48:56.570Z,6.88
2018-03-28T04:55:01.032Z,6.91
2018-03-28T05:01:05.491Z,6.80
2018-03-28T05:07:10.033Z,6.98
2018-03-28T05:13:15.517Z,6.95
2018-03-28T05:19:20.203Z,7.06
2018-03-28T05:25:24.710Z,7.12
2018-03-28T05:31:29.934Z,6.97
2018-03-28T05:37:34.523Z,7.18
2018-03-28T05:43:39.247Z,7.21
2018-03-28T05:49:44.845Z,7.20
2018-03-28T05:55:50.157Z,7.22
2018-03-28T06:01:54.698Z,7.23
2018-03-28T06:07:59.313Z,7.47
2018-03-28T06:14:04.112Z,7.62
2018-03-28T06:20:08.666Z,7.59
2018-03-28T06:26:14.159Z,7.75
2018-03-28T06:32:19.860Z,7.70
2018-03-28T06:38:24.371Z,7.72
2018-03-28T06:44:28.884Z,7.61
2018-03-28T06:50:33.355Z,7.60
2018-03-28T06:56:37.872Z,7.55
2018-03-28T07:02:43.170Z,7.80
2018-03-28T07:08:48.061Z,7.75
2018-03-28T07:14:52.659Z,7.91
2018-03-28T07:20:58.137Z,8.05
2018-03-28T07:27:02.662Z,8.09
2018-03-28T07:33:07.131Z,8.07
2018-03-28T07:39:13.177Z,8.11
2018-03-28T07:45:18.502Z,8.18
2018-03-28T07:51:23.389Z,8.38
2018-03-28T07:57:27.959Z,8.47
2018-03-28T08:03:32.454Z,8.39
2018-03-28T08:09:37.716Z,8.33
2018-03-28T08:15:42.273Z,8.21
2018-03-28T08:21:46.759Z,8.33
2018-03-28T08:27:51.332Z,8.47
2018-03-28T08:33:55.880Z,8.46
2018-03-28T08:40:01.163Z,8.57
2018-03-28T08:46:05.588Z,8.60
2018-03-28T08:52:10.142Z,8.77
2018-03-28T08:58:14.675Z,8.85
2018-03-28T09:04:19.799Z,9.02
2018-03-28T09:10:24.380Z,9.06
2018-03-28T09:16:29.763Z,9.09
2018-03-28T09:22:34.236Z,9.07
2018-03-28T09:28:38.815Z,9.09
2018-03-28T09:34:43.433Z,9.22
2018-03-28T09:40:49.068Z,9.27
2018-03-28T09:46:53.683Z,9.62
2018-03-28T09:52:58.192Z,9.82
2018-03-28T09:59:02.678Z,9.67
2018-03-28T10:05:07.265Z,9.79
2018-03-28T10:11:12.069Z,9.70
2018-03-28T10:17:17.070Z,9.74
2018-03-28T10:23:22.401Z,10.33
2018-03-28T10:29:27.004Z,10.61
2018-03-28T10:35:31.499Z,10.85
2018-03-28T10:41:36.064Z,11.07
2018-03-28T10:47:40.918Z,10.81
2018-03-28T10:53:45.424Z,10.85
2018-03-28T10:59:50.080Z,10.81
2018-03-28T11:05:54.610Z,11.02
2018-03-28T11:11:59.248Z,11.13
2018-03-28T11:18:04.742Z,10.74
2018-03-28T11:24:09.356Z,10.68
2018-03-28T11:30:14.042Z,10.68
2018-03-28T11:36:20.563Z,10.85
2018-03-28T11:42:25.093Z,11.38
2018-03-28T11:48:29.747Z,11.39
2018-03-28T11:54:34.309Z,10.80
2018-03-28T12:00:39.620Z,10.68
2018-03-28T12:06:44.195Z,10.46
2018-03-28T12:12:48.680Z,10.91
2018-03-28T12:18:53.464Z,11.42
2018-03-28T12:24:58.030Z,11.59
2018-03-28T12:31:02.529Z,11.88
2018-03-28T12:37:07.949Z,11.91
2018-03-28T12:43:12.769Z,12.17
2018-03-28T12:49:17.297Z,11.99
2018-03-28T12:55:22.253Z,11.69
2018-03-28T13:01:26.867Z,11.68
2018-03-28T13:07:32.372Z,11.82
2018-03-28T13:13:36.991Z,11.94
2018-03-28T13:19:41.599Z,12.09
2018-03-28T13:25:46.819Z,12.29
2018-03-28T13:31:51.961Z,12.28
2018-03-28T13:37:57.344Z,12.18
2018-03-28T13:44:01.877Z,11.96
2018-03-28T13:50:06.382Z,12.06
2018-03-28T13:56:10.905Z,12.23
2018-03-28T14:02:15.477Z,12.51
2018-03-28T14:08:20.153Z,12.47
2018-03-28T14:14:24.644Z,12.39
2018-03-28T14:20:29.165Z,12.54
2018-03-28T14:26:34.491Z,12.28
2018-03-28T14:32:39.760Z,12.01
2018-03-28T14:38:44.322Z,11.49
2018-03-28T14:44:49.283Z,11.56
2018-03-28T14:50:53.811Z,11.34
2018-03-28T14:56:58.297Z,11.15
2018-03-28T15:03:02.798Z,10.88
2018-03-28T15:09:08.164Z,10.75
2018-03-28T15:15:14.355Z,10.61
2018-03-28T15:21:20.163Z,10.33
2018-03-28T15:27:24.669Z,10.00
2018-03-28T15:33:29.406Z,9.77
2018-03-28T15:39:34.726Z,9.69
2018-03-28T15:45:39.266Z,9.52
2018-03-28T15:51:43.959Z,9.55
2018-03-28T15:57:49.942Z,9.42
2018-03-28T16:03:54.652Z,9.34
2018-03-28T16:09:59.287Z,9.31
2018-03-28T16:16:04.890Z,9.31
2018-03-28T16:22:09.714Z,9.30
2018-03-28T16:28:14.206Z,9.38
2018-03-28T16:34:19.432Z,9.36
2018-03-28T16:40:23.935Z,9.51
2018-03-28T16:46:28.436Z,9.22
2018-03-28T16:52:33.708Z,9.32
2018-03-28T16:58:38.218Z,9.18
2018-03-28T17:04:42.727Z,9.34
2018-03-28T17:10:47.853Z,9.24
2018-03-28T17:16:53.305Z,9.31
2018-03-28T17:22:58.129Z,9.30
2018-03-28T17:29:03.510Z,9.23
2018-03-28T17:35:08.023Z,9.09
2018-03-28T17:41:13.795Z,9.03
2018-03-28T17:47:18.782Z,8.97
2018-03-28T17:53:23.279Z,9.04
2018-03-28T17:59:27.789Z,8.92
2018-03-28T18:05:33.074Z,8.88
2018-03-28T18:11:37.556Z,8.93
2018-03-28T18:17:42.829Z,8.91
2018-03-28T18:23:47.842Z,8.73
2018-03-28T18:29:52.517Z,8.67
2018-03-28T18:35:56.994Z,8.56
2018-03-28T18:42:01.654Z,8.74
2018-03-28T18:48:06.361Z,8.62
2018-03-28T18:54:10.827Z,8.44
2018-03-28T19:00:15.313Z,8.33
2018-03-28T19:06:19.998Z,8.12
2018-03-28T19:12:24.518Z,8.13
2018-03-28T19:18:29.038Z,8.08
2018-03-28T19:24:33.526Z,8.01
2018-03-28T19:30:38.017Z,8.08
2018-03-28T19:36:42.571Z,8.09
2018-03-28T19:42:47.576Z,8.03
2018-03-28T19:48:52.196Z,7.99
2018-03-28T19:54:57.537Z,7.82
2018-03-28T20:01:02.408Z,7.94
2018-03-28T20:07:06.900Z,8.02
2018-03-28T20:13:11.443Z,8.00
2018-03-28T20:19:15.929Z,8.00
2018-03-28T20:25:20.909Z,8.14
2018-03-28T20:31:25.449Z,8.15
2018-03-28T20:37:31.661Z,8.07
2018-03-28T20:43:36.329Z,8.21
2018-03-28T20:49:40.881Z,8.17
2018-03-28T20:55:45.378Z,8.16
2018-03-28T21:01:51.471Z,8.11
2018-03-28T21:07:56.051Z,8.30
2018-03-28T21:14:00.674Z,8.32
2018-03-28T21:20:05.220Z,8.19
2018-03-28T21:26:10.515Z,8.20
2018-03-28T21:32:15.071Z,8.13
2018-03-28T21:51:24.560Z,7.99
2018-03-28T21:57:29.324Z,8.16
2018-03-28T22:03:33.900Z,8.44
2018-03-28T22:09:38.410Z,8.68
2018-03-28T22:15:43.142Z,8.45
2018-03-28T22:21:49.164Z,8.09
2018-03-28T22:27:53.888Z,7.71
2018-03-28T22:33:58.388Z,7.44
2018-03-28T22:40:03.782Z,7.33
2018-03-28T22:46:09.236Z,7.13
2018-03-28T22:52:13.870Z,6.88
2018-03-28T22:58:18.757Z,6.82
2018-03-28T23:04:23.533Z,6.63
2018-03-28T23:10:28.013Z,6.53
2018-03-28T23:16:33.311Z,6.39
2018-03-28T23:22:39.314Z,6.12
2018-03-28T23:28:44.396Z,6.08
2018-03-28T23:34:50.783Z,6.06
2018-03-28T23:40:55.524Z,6.08
2018-03-28T23:47:00.820Z,6.00
2018-03-28T23:53:06.389Z,5.86
2018-03-28T23:59:10.958Z,5.74
